Estación Meteorológica Peña el Pijo (Robertgarden) [ 12/11/18 10:08:22 CET ]

Fecha Hora Presion(HPa) Temp (°C) Humedad % Rocio (°C) Viento ( m/s) Direccion Lluvia 1Hora(mm) Lluvia 24H(mm) LLuvia Total(mm)
2018-Feb-16 01:01:50 1014.100 3.8 81 0.9         82.36
2018-Feb-16 02:03:08 1013.600 2.8 82 0.0         82.36
2018-Feb-16 03:01:47 1013.600 2.3 83 -0.3         82.36
2018-Feb-16 04:01:44 1013.200 2.4 84 -0.1         82.36
2018-Feb-16 05:01:42 1012.800 2.3 85 0.0         82.36
2018-Feb-16 06:01:59 1012.700 3.2 86 1.1         82.36
2018-Feb-16 07:01:40 1012.500 3.6 86 1.5         82.36
2018-Feb-16 08:01:36 1012.700 3.5 86 1.4         82.36
2018-Feb-16 09:01:35 1012.900 4.5 87 2.5         82.36
2018-Feb-16 10:01:34 1012.800 6.9 87 4.9         82.36
2018-Feb-16 11:01:48 1012.700 11.2 82 8.2         82.36
2018-Feb-16 12:01:39 1012.400 14.9 61 7.4         82.36
2018-Feb-16 13:01:45 1011.600 17.6 49 6.7 0.7 SE     82.36
2018-Feb-16 14:01:47 1010.700 18.2 47 6.6         82.36
2018-Feb-16 15:01:34 1010.100 17.2 51 6.9 1.5 NE     82.36
2018-Feb-16 16:01:29 1010.000 15.9 53 6.3         82.36
2018-Feb-16 17:01:50 1010.100 15.1 56 6.3         82.36
2018-Feb-16 18:01:39 1009.900 14.4 59 6.5         82.36
2018-Feb-16 19:01:27 1010.600 13.3 63 6.4         82.36
2018-Feb-16 20:01:38 1011.100 12.1 66 5.9         82.36
2018-Feb-16 21:01:50 1011.300 10.9 69 5.5         82.36
2018-Feb-16 22:01:43 1011.800 9.9 71 4.9         82.36
2018-Feb-16 23:01:36 1011.800 7.7 74 3.4         82.36

Temperatura Máxima:18°    Temperatura Mínima:
Presión Máxima:1014.100 Hpa    Presión Mínima:1009.900 Hpa


Volver